ADDS METAR Data INFO
IDs: Format: Raw Decoded Include TAF

Data at: 0848 UTC 27 Jun 2017

KGYB 270835Z AUTO 00000KT 10SM CLR 23/22 A3002 RMK AO2 T02300215
KGYB 270815Z AUTO 00000KT 10SM CLR 23/22 A3001 RMK AO2 T02280215
KGYB 270755Z AUTO 00000KT 10SM CLR 23/22 A3002 RMK AO2 T02300216
KGYB 270735Z AUTO 00000KT 10SM CLR 23/22 A3002 RMK AO2 T02330215
KGYB 270715Z AUTO 00000KT 10SM CLR 23/22 A3003 RMK AO2 T02310215
KGYB 270655Z AUTO 00000KT 10SM CLR 23/22 A3004 RMK AO2 T02320215
KGYB 270635Z AUTO 00000KT 10SM CLR 24/22 A3004 RMK AO2 T02350215
KGYB 270615Z AUTO 16003KT 10SM CLR 24/21 A3004 RMK AO2 T02350214
KGYB 270555Z AUTO 00000KT 10SM CLR 23/22 A3005 RMK AO2 T02340215 10288 20233 403260222
KGYB 270535Z AUTO 00000KT 10SM CLR 24/21 A3004 RMK AO2 T02350214
KGYB 270515Z AUTO 00000KT 10SM CLR 24/21 A3004 RMK AO2 T02360214
KGYB 270455Z AUTO 09003KT 10SM CLR 24/22 A3005 RMK AO2 T02370216
KGYB 270435Z AUTO 00000KT 10SM CLR 24/22 A3004 RMK AO2 T02370216
KGYB 270415Z AUTO 07003KT 10SM CLR 24/22 A3004 RMK AO2 T02400215
KGYB 270355Z AUTO 00000KT 10SM CLR 24/21 A3002 RMK AO2 T02400212
KGYB 270335Z AUTO 00000KT 10SM CLR 24/21 A3002 RMK AO2 T02440213
KGYB 270315Z AUTO 00000KT 10SM CLR 24/21 A3003 RMK AO2 T02440213
KGYB 270255Z AUTO 00000KT 10SM CLR 25/21 A3003 RMK AO2 T02450213
KGYB 270235Z AUTO 00000KT 10SM CLR 25/21 A3004 RMK AO2 T02470211
KGYB 270215Z AUTO 17003KT 10SM CLR 25/21 A3002 RMK AO2 T02480210
KGYB 270155Z AUTO 16004KT 10SM CLR 25/21 A3002 RMK AO2 T02500213
KGYB 270135Z AUTO 16008KT 10SM CLR 25/21 A3001 RMK AO2 T02540212
KGYB 270115Z AUTO 14009KT 10SM SCT017 SCT025 26/22 A3002 RMK AO2 T02630220
KGYB 270055Z AUTO 15008G15KT 10SM CLR 27/22 A3001 RMK AO2 T02710221
KGYB 270035Z AUTO 12005KT 10SM CLR 29/21 A3000 RMK AO2 T02880210
KGYB 270015Z AUTO 13007KT 10SM CLR 28/22 A3000 RMK AO2 T02830217
KGYB 262355Z AUTO 15003KT 10SM CLR 28/22 A3000 RMK AO2 T02770216 10326 20270
KGYB 262335Z AUTO 15005KT 10SM CLR 28/21 A3000 RMK AO2 T02800211
KGYB 262315Z AUTO 16007KT 10SM SCT050 SCT075 SCT085 27/21 A3000 RMK AO2 T02700212
KGYB 262255Z AUTO 14008G14KT 10SM SCT039 SCT045 BKN070 28/22 A3000 RMK AO2 T02830216
KGYB 262235Z AUTO 11011KT 10SM SCT045 SCT050 BKN070 33/21 A3000 RMK AO2 T03250205
KGYB 262215Z AUTO 06005KT 10SM SCT044 32/21 A2999 RMK AO2 T03210206
KGYB 262155Z AUTO 06007KT 10SM SCT044 SCT050 32/21 A3000 RMK AO2 T03180206
KGYB 262135Z AUTO 07008KT 10SM SCT044 SCT050 32/20 A3001 RMK AO2 T03200202
KGYB 262115Z AUTO 05005KT 10SM CLR 32/21 A3002 RMK AO2 T03170205
KGYB 262055Z AUTO 03003KT 10SM SCT037 SCT043 SCT049 31/20 A3002 RMK AO2 T03140201
KGYB 262035Z AUTO 08005KT 10SM BKN039 BKN049 30/21 A3003 RMK AO2 T03030209
KGYB 262015Z AUTO 01004KT 10SM CLR 31/21 A3003 RMK AO2 T03090206
KGYB 261955Z AUTO 04005KT 10SM SCT050 SCT060 30/21 A3004 RMK AO2 T03030206
KGYB 261935Z AUTO 05005KT 10SM SCT036 SCT060 31/21 A3005 RMK AO2 T03090207
KGYB 261915Z AUTO 14004KT 10SM SCT032 SCT060 31/21 A3006 RMK AO2 T03110205
KGYB 261855Z AUTO 05006KT 10SM SCT030 SCT090 31/21 A3007 RMK AO2 T03090211
KGYB 261835Z AUTO 09007KT 10SM SCT029 30/22 A3009 RMK AO2 T02980216
KGYB 261815Z AUTO 07004KT 10SM CLR 29/21 A3010 RMK AO2 T02930211
KGYB 261755Z AUTO 00000KT 10SM SCT027 28/21 A3011 RMK AO2 T02840214 10287 20222
KGYB 261735Z AUTO 09005KT 10SM SCT020 SCT024 SCT038 28/22 A3012 RMK AO2 T02840215
KGYB 261715Z AUTO 10003KT 10SM SCT020 SCT024 28/22 A3012 RMK AO2 T02820215
KGYB 261655Z AUTO 11004KT 10SM SCT017 SCT024 BKN100 27/22 A3013 RMK AO2 T02690220
KGYB 261635Z AUTO 07003KT 10SM SCT014 SCT018 SCT023 27/22 A3013 RMK AO2 T02700221
KGYB 261615Z AUTO 08004KT 10SM BKN014 OVC021 26/22 A3014 RMK AO2 T02610219
KGYB 261555Z AUTO 11004KT 10SM OVC012 25/22 A3014 RMK AO2 T02540219
KGYB 261535Z AUTO 08003KT 10SM BKN010 BKN014 26/22 A3014 RMK AO2 T02570219
KGYB 261515Z AUTO 04004KT 10SM BKN010 OVC014 25/22 A3014 RMK AO2 T02470218
KGYB 261455Z AUTO 10004KT 10SM OVC008 24/22 A3015 RMK AO2 T02360219
KGYB 261435Z AUTO 06003KT 10SM OVC008 23/22 A3014 RMK AO2 T02310221
KGYB 261415Z AUTO 08006KT 10SM BKN006 OVC011 23/23 A3015 RMK AO2 T02310225
KGYB 261355Z AUTO 08005KT 5SM BR OVC006 23/22 A3014 RMK AO2 T02280222
KGYB 261335Z AUTO 05004KT 4SM BR OVC002 23/22 A3013 RMK AO2 T02270221
KGYB 261315Z AUTO 05003KT 4SM BR OVC002 23/22 A3012 RMK AO2 T02260220
KGYB 261255Z AUTO 04003KT 4SM BR OVC002 23/22 A3012 RMK AO2 T02250220
KGYB 261235Z AUTO 06003KT 4SM BR BKN002 BKN007 BKN021 23/22 A3011 RMK AO2 T02250219
KGYB 261215Z AUTO 08003KT 2 1/2SM BR SCT002 22/22 A3011 RMK AO2 T02230217
KGYB 261155Z AUTO 08003KT 2 1/2SM BR SCT002 22/22 A3011 RMK AO2 60035 70038 T02220216 10232 20222
KGYB 261135Z AUTO 00000KT 3SM BR CLR 22/22 A3011 RMK AO2 T02240217
KGYB 261115Z AUTO 00000KT 5SM BR SCT070 23/22 A3011 RMK AO2 T02250217
KGYB 261055Z AUTO 01003KT 7SM SCT070 SCT095 SCT120 23/22 A3011 RMK AO2 P0010 T02250217
KGYB 261035Z AUTO 35003KT 4SM -RA SCT013 SCT039 BKN095 23/22 A3012 RMK AO2 P0010 T02260220
KGYB 261015Z AUTO 00000KT 7SM SCT015 SCT044 BKN120 23/22 A3012 RMK AO2 T02270220
KGYB 260955Z AUTO 00000KT 5SM -RA CLR 23/22 A3012 RMK AO2 P0005 T02270220
KGYB 260935Z AUTO 00000KT 4SM RA SCT060 SCT095 SCT110 23/22 A3012 RMK AO2 P0004 T02280220
KGYB 260915Z AUTO 00000KT 5SM -RA SCT032 SCT055 BKN120 23/22 A3011 RMK AO2 P0001 T02270220
KGYB 260855Z AUTO 00000KT 5SM -RA SCT009 SCT031 BKN060 23/22 A3011 RMK AO2 P0003 60020 T02270220
KGYB 260835Z AUTO 09003KT 5SM RA SCT019 SCT024 BKN110 23/22 A3012 RMK AO2 P0001 T02280220
KGYB 260815Z AUTO 00000KT 7SM DZ BKN019 BKN070 OVC090 23/22 A3012 RMK AO2 T02280220
KGYB 260755Z AUTO 06003KT 7SM -RA SCT055 BKN090 OVC110 23/22 A3012 RMK AO2 P0017 T02300220
KGYB 260735Z AUTO 08005KT 5SM RA SCT019 BKN049 OVC100 23/22 A3011 RMK AO2 P0017 T02300221
KGYB 260715Z AUTO 10009KT 3SM +RA SCT011 BKN023 OVC042 23/22 A3012 RMK AO2 P0012 T02310220
KGYB 260655Z AUTO 12003KT 10SM RA SCT019 BKN025 OVC075 23/22 A3012 RMK AO2 T02310218
KGYB 260635Z AUTO 00000KT 10SM SCT018 SCT036 OVC075 23/22 A3012 RMK AO2 T02300216
KGYB 260615Z AUTO 09004KT 10SM SCT020 BKN034 OVC095 23/22 A3012 RMK AO2 T02300217
KGYB 260555Z AUTO 11003KT 10SM BKN018 BKN032 OVC060 23/22 A3013 RMK AO2 60002 T02300216 10295 20221 403100219
KGYB 260535Z AUTO 09003KT 10SM BKN018 BKN065 OVC085 23/22 A3014 RMK AO2 T02290215
KGYB 260515Z AUTO 00000KT 10SM OVC085 23/21 A3014 RMK AO2 T02250212
KGYB 260455Z AUTO 00000KT 10SM SCT065 OVC075 23/21 A3013 RMK AO2 T02250212
KGYB 260435Z AUTO 08003KT 10SM SCT060 OVC070 23/21 A3013 RMK AO2 T02260212
KGYB 260415Z AUTO 00000KT 10SM BKN070 22/21 A3012 RMK AO2 T02240207
KGYB 260355Z AUTO 10003KT 10SM DZ SCT028 SCT046 BKN070 22/21 A3011 RMK AO2 T02220206
KGYB 260335Z AUTO 06003KT 10SM SCT026 SCT080 OVC100 22/21 A3012 RMK AO2 T02220207
KGYB 260320Z AUTO 00000KT 10SM SCT080 OVC100 22/21 A3011 RMK AO2 T02220207
KGYB 260255Z AUTO 06004KT 10SM SCT070 OVC090 22/21 A3012 RMK AO2 60002 T02220210
KGYB 260235Z AUTO 08006KT 10SM SCT047 BKN060 OVC070 23/21 A3012 RMK AO2 T02250213
KGYB 260215Z AUTO 11003KT 10SM DZ SCT046 BKN065 OVC090 23/22 A3012 RMK AO2 T02270215
KGYB 260155Z AUTO 12005KT 10SM SCT032 SCT065 OVC080 23/22 A3011 RMK AO2 P0002 T02310217
KGYB 260135Z AUTO 15005KT 7SM RA SCT010 SCT024 OVC060 23/22 A3010 RMK AO2 P0001 T02340215
KGYB 260115Z AUTO 16007KT 10SM SCT010 BKN019 OVC031 25/22 A3010 RMK AO2 T02470219
KGYB 260055Z AUTO 17007KT 140V210 10SM SCT019 SCT029 BKN041 26/20 A3010 RMK AO2 T02610203
KGYB 260035Z AUTO 22005KT 10SM SCT028 SCT037 SCT046 26/21 A3009 RMK AO2 T02640207
KGYB 260015Z AUTO 20008KT 10SM SCT028 SCT037 BKN055 28/21 A3009 RMK AO2 T02810211
KGYB 252355Z AUTO 08004KT 10SM SCT037 SCT046 BKN070 30/22 A3009 RMK AO2 60001 T02950218 10310 20230
KGYB 252335Z AUTO 07007KT 10SM SCT033 SCT047 SCT075 29/22 A3007 RMK AO2 T02860219
KGYB 252315Z AUTO 01004KT 10SM SCT049 SCT075 BKN090 31/21 A3007 RMK AO2 T03060210
KGYB 252255Z AUTO 02005KT 10SM SCT037 SCT049 BKN055 31/21 A3009 RMK AO2 T03070211
KGYB 252235Z AUTO 00000KT 10SM SCT036 31/21 A3009 RMK AO2 T03060207
KGYB 252215Z AUTO 09004KT 10SM CLR 31/21 A3008 RMK AO2 T03090207
KGYB 252155Z AUTO 08004KT 10SM CLR 30/20 A3009 RMK AO2 T03040198
KGYB 252135Z AUTO 00000KT 10SM SCT032 SCT090 31/21 A3009 RMK AO2 T03080210
KGYB 252115Z AUTO 17003KT 10SM SCT030 SCT090 31/21 A3011 RMK AO2 T03050207
KGYB 252055Z AUTO 00000KT 10SM SCT028 29/21 A3010 RMK AO2 60001 T02880214


Page loaded:  08:48 UTC  |   01:48 AM Pacific  |   02:48 AM Mountain  |   03:48 AM Central  |   04:48 AM Eastern

 

ADVISORIES

FORECASTS

FORECASTS

OBSERVATIONS

USER TOOLS

ABOUT US